Latest Weather Observations for Roma

IDQ60801

Issued at 12:01 pm EST Friday 28 August 2015 (issued every 30 minutes, with the page automatically refreshed every 10 minutes)

About weather observations | Map of weather stations | Latest weather observations for QLD | Other Formats
Station Details ID: 043091 Name: ROMA AIRPORT Lat: -26.55 Lon: 148.77 Height: 307.38 m
Data from the previous 72 hours. | See also: Recent months at Roma
Date/Time
EST
Temp
°C
App
Temp
°C
Dew
Point
Rel
Hum
%
Delta-T
°C
Wind Press
QNH
hPa
Press
MSL
hPa
Rain
since 9 am
mm
Dir
 
Spd
km/h
Gust
km/h
Spd
kts
Gust
kts
28/12:00pm 18.5 16.4 9.8 57 4.7 SSE 11 19 6 10 1023.3 1023.2 0.0
28/11:30am 17.9 15.8 11.0 64 3.8 SE 13 22 7 12 1023.8 1023.7 0.0
28/11:00am 17.1 15.7 10.9 67 3.4 SSE 9 17 5 9 1024.5 1024.3 0.0
28/10:32am 15.7 14.5 11.5 76 2.3 SSW 9 15 5 8 1024.9 1024.7 0.0
28/10:30am 15.4 14.0 10.8 74 2.5 SSW 9 15 5 8 1024.9 1024.7 0.0
28/10:00am 14.5 12.7 10.7 78 2.0 S 11 15 6 8 1025.1 1024.9 0.0
28/09:30am 14.2 11.8 11.5 84 1.5 S 15 20 8 11 1025.3 1025.1 0.0
28/09:00am 13.4 11.8 11.5 88 1.0 SSE 11 15 6 8 1025.2 1025.0 8.4
28/08:30am 12.9 10.9 11.6 92 0.7 SE 13 17 7 9 1025.0 1024.8 8.4
28/08:19am 12.5 10.9 11.4 93 0.6 SSE 11 15 6 8 1024.8 1024.6 8.4
28/08:00am 12.4 10.8 11.5 94 0.5 SE 11 17 6 9 1024.6 1024.4 8.4
28/07:55am 12.4 10.4 11.5 94 0.5 SE 13 15 7 8 1024.6 1024.4 8.4
28/07:48am 12.3 10.7 11.4 94 0.5 SE 11 13 6 7 1024.6 1024.4 8.4
28/07:30am 12.1 10.0 11.2 94 0.5 S 13 17 7 9 1024.2 1024.0 8.4
28/07:25am 12.3 10.7 11.4 94 0.5 S 11 15 6 8 1024.1 1023.9 8.4
28/07:08am 12.2 10.5 11.3 94 0.5 SSE 11 17 6 9 1024.1 1023.9 8.4
28/07:00am 12.0 9.9 11.1 94 0.5 SSE 13 17 7 9 1024.0 1023.8 8.4
28/06:30am 11.9 10.1 11.0 94 0.5 S 11 15 6 8 1023.5 1023.4 8.4
28/06:25am 12.0 10.3 11.1 94 0.5 S 11 15 6 8 1023.5 1023.4 8.4
28/06:00am 12.0 10.3 11.1 94 0.5 SSW 11 13 6 7 1023.2 1023.1 8.4
28/05:57am 12.0 10.7 11.1 94 0.5 SSW 9 13 5 7 1023.2 1023.1 8.4
28/05:30am 11.9 10.2 11.1 95 0.4 SSW 11 15 6 8 1022.9 1022.7 8.4
28/05:18am 12.0 10.7 11.2 95 0.4 S 9 17 5 9 1022.7 1022.5 8.4
28/05:00am 11.4 10.3 10.5 94 0.5 SSW 7 9 4 5 1022.6 1022.4 8.4
28/04:50am 10.5 8.7 9.4 93 0.6 WSW 9 11 5 6 1022.5 1022.3 8.4
28/04:30am 10.7 8.9 9.3 91 0.7 WSW 9 9 5 5 1022.3 1022.1 8.4
28/04:24am 10.9 9.1 9.5 91 0.7 WSW 9 9 5 5 1022.3 1022.1 8.4
28/04:00am 11.9 10.3 10.3 90 0.8 SSW 9 11 5 6 1022.1 1021.9 8.4
28/03:56am 12.1 10.6 10.5 90 0.8 SSW 9 11 5 6 1022.2 1022.0 8.4
28/03:30am 13.0 11.2 12.1 94 0.5 S 13 17 7 9 1022.1 1021.9 8.4
28/03:29am 13.0 11.2 12.1 94 0.5 S 13 17 7 9 1022.1 1021.9 8.4
28/03:00am 12.9 11.8 12.0 94 0.5 S 9 11 5 6 1022.2 1022.0 8.4
28/02:36am 12.2 11.2 10.9 92 0.7 SW 7 7 4 4 1022.2 1022.0 8.4
28/02:30am 12.2 11.2 10.9 92 0.7 SW 7 9 4 5 1022.3 1022.1 8.4
28/02:16am 12.6 11.7 11.3 92 0.7 WSW 7 9 4 5 1022.1 1021.9 8.4
28/02:00am 13.3 12.3 12.2 93 0.6 SW 9 11 5 6 1022.1 1021.9 8.4
28/01:30am 13.1 11.6 11.8 92 0.7 SW 11 13 6 7 1022.3 1022.1 8.4
28/01:00am 13.5 12.5 12.2 92 0.7 SW 9 11 5 6 1022.6 1022.4 8.4
28/12:30am 13.8 13.2 12.4 91 0.8 SSW 7 9 4 5 1022.7 1022.5 8.4
28/12:24am 14.0 13.5 12.6 91 0.8 SSW 7 7 4 4 1022.7 1022.5 8.4
28/12:00am 14.5 14.1 12.9 90 0.9 SW 7 9 4 5 1022.8 1022.6 8.4
 
Date/Time
EST
Temp
°C
App
Temp
°C
Dew
Point
Rel
Hum
%
Delta-T
°C
Wind Press
QNH
hPa
Press
MSL
hPa
Rain
since 9 am
mm
Dir
 
Spd
km/h
Gust
km/h
Spd
kts
Gust
kts
27/11:37pm 14.8 14.5 13.2 90 0.9 SSW 7 9 4 5 1023.0 1022.8 8.4
27/11:30pm 14.8 14.5 13.2 90 0.9 SSW 7 9 4 5 1022.9 1022.7 8.4
27/11:00pm 14.9 14.2 13.3 90 0.9 SW 9 11 5 6 1022.9 1022.7 8.4
27/10:30pm 15.0 15.3 13.5 91 0.8 WSW 4 7 2 4 1022.9 1022.7 8.4
27/10:00pm 15.0 14.7 13.4 90 0.9 SW 7 9 4 5 1022.9 1022.7 8.4
27/09:30pm 15.0 14.9 13.4 90 0.9 S 6 9 3 5 1022.9 1022.7 8.4
27/09:02pm 15.1 14.4 13.3 89 1.0 SSW 9 13 5 7 1023.0 1022.8 8.4
27/09:00pm 15.1 14.4 13.3 89 1.0 SSW 9 13 5 7 1022.9 1022.7 8.4
27/08:30pm 15.3 13.6 13.7 90 0.9 SSW 15 20 8 11 1022.8 1022.6 8.4
27/08:00pm 15.3 12.9 13.7 90 0.9 SSW 19 28 10 15 1022.3 1022.1 8.4
27/07:30pm 15.7 13.8 14.2 91 0.9 SSW 17 22 9 12 1021.9 1021.7 8.4
27/07:12pm 15.8 13.0 14.3 91 0.9 SW 22 28 12 15 1021.7 1021.5 8.2
27/07:00pm 15.8 13.0 14.3 91 0.9 SW 22 28 12 15 1021.6 1021.4 8.2
27/06:57pm 15.8 13.0 14.3 91 0.9 SW 22 28 12 15 1021.4 1021.2 8.2
27/06:30pm 16.0 13.9 14.7 92 0.8 SSW 19 26 10 14 1021.0 1020.8 8.2
27/06:27pm 16.0 13.8 14.5 91 0.9 SSW 19 24 10 13 1020.9 1020.7 8.2
27/06:17pm 16.0 13.3 14.5 91 0.9 SSW 22 32 12 17 1020.7 1020.5 8.2
27/06:05pm 16.7 14.6 14.7 88 1.2 WSW 19 33 10 18 1020.6 1020.4 5.8
27/06:00pm 17.4 17.5 15.4 88 1.2 N 9 30 5 16 1020.2 1020.0 3.6
27/05:30pm 17.6 17.1 15.0 85 1.5 N 11 15 6 8 1019.7 1019.5 3.6
27/05:00pm 18.2 19.1 16.0 87 1.3 N 6 7 3 4 1019.7 1019.5 3.6
27/04:30pm 18.4 18.0 15.1 81 2.0 N 11 13 6 7 1019.4 1019.2 3.6
27/04:00pm 19.4 19.2 14.6 74 2.8 N 9 11 5 6 1019.2 1019.0 3.2
27/03:30pm 19.4 18.3 14.4 73 2.9 NNW 13 17 7 9 1019.3 1019.1 3.2
27/03:00pm 19.0 18.9 14.9 77 2.4 NNW 9 15 5 8 1019.3 1019.1 3.2
27/02:51pm 19.0 19.0 15.1 78 2.3 NNW 9 13 5 7 1019.5 1019.3 3.2
27/02:30pm 18.6 18.2 15.1 80 2.1 NNW 11 15 6 8 1019.8 1019.6 3.2
27/02:12pm 18.4 17.7 15.3 82 1.8 NNW 13 19 7 10 1019.8 1019.6 3.2
27/02:08pm 18.2 17.0 15.1 82 1.8 NNW 15 19 8 10 1019.9 1019.7 3.2
27/02:00pm 17.8 16.5 14.9 83 1.7 NNW 15 19 8 10 1020.0 1019.8 3.2
27/01:49pm 17.6 16.5 15.2 86 1.4 N 15 19 8 10 1020.0 1019.8 3.2
27/01:47pm 17.5 16.3 15.0 85 1.5 N 15 19 8 10 1020.0 1019.8 3.2
27/01:30pm 17.4 16.2 15.0 86 1.4 N 15 20 8 11 1020.2 1020.0 3.2
27/01:00pm 17.2 16.5 15.4 89 1.1 N 13 17 7 9 1020.2 1020.0 3.2
27/12:30pm 16.6 15.6 14.6 88 1.2 NNE 13 17 7 9 1021.0 1020.8 3.2
27/12:00pm 16.2 14.8 14.4 89 1.0 NNE 15 20 8 11 1021.6 1021.4 3.2
27/11:30am 16.1 14.6 14.3 89 1.0 N 15 19 8 10 1022.2 1022.0 2.8
27/11:14am 16.0 15.0 14.5 91 0.9 N 13 19 7 10 1022.4 1022.2 2.8
27/11:00am 15.4 13.4 13.8 90 0.9 NNE 17 20 9 11 1022.5 1022.3 2.8
27/10:30am 14.9 12.7 13.4 91 0.8 NNE 17 20 9 11 1022.8 1022.6 2.2
27/10:00am 14.7 12.1 13.2 91 0.8 NNE 19 24 10 13 1023.1 1023.0 1.6
27/09:30am 14.4 12.1 13.0 91 0.8 N 17 20 9 11 1023.4 1023.3 0.4
27/09:00am 14.2 12.6 12.8 91 0.8 NNE 13 17 7 9 1023.1 1023.0 6.6
27/08:30am 13.9 12.2 12.5 91 0.8 N 13 17 7 9 1023.1 1023.0 6.0
27/08:00am 13.6 11.4 12.2 91 0.8 NNE 15 20 8 11 1023.0 1022.8 5.4
27/07:30am 13.5 12.1 12.1 91 0.8 NNE 11 13 6 7 1023.0 1022.8 3.8
27/07:00am 13.5 13.0 11.9 90 0.9 NW 6 7 3 4 1022.8 1022.6 3.0
27/06:30am 13.4 14.0 12.0 91 0.8 CALM 0 0 0 0 1022.1 1021.9 2.6
27/06:00am 13.3 12.5 11.7 90 0.9 NNW 7 7 4 4 1021.7 1021.5 2.4
27/05:30am 13.4 13.1 11.6 89 1.0 ENE 4 9 2 5 1021.5 1021.3 2.4
27/05:00am 13.6 11.8 12.2 91 0.8 ENE 13 15 7 8 1021.0 1020.8 2.2
27/04:30am 13.9 13.5 12.3 90 0.9 N 6 11 3 6 1021.5 1021.3 1.4
27/04:00am 14.0 13.0 12.2 89 1.0 WSW 9 11 5 6 1021.9 1021.7 0.6
27/03:30am 14.0 14.2 12.0 88 1.1 W 2 6 1 3 1021.6 1021.4 0.2
27/03:00am 14.1 13.0 12.0 87 1.1 SE 9 11 5 6 1020.9 1020.7 0.2
27/02:30am 14.3 13.6 12.0 86 1.3 SW 7 11 4 6 1021.7 1021.5 0.0
27/02:00am 14.7 13.7 12.2 85 1.4 SW 9 11 5 6 1022.1 1021.9 0.0
27/01:30am 14.6 13.9 12.1 85 1.4 W 7 11 4 6 1022.3 1022.1 0.0
27/01:00am 14.6 13.8 11.6 82 1.6 N 7 9 4 5 1022.1 1021.9 0.0
27/12:30am 14.5 13.3 11.6 83 1.6 NNE 9 11 5 6 1022.0 1021.8 0.0
27/12:00am 14.8 14.1 11.9 83 1.6 NNE 7 7 4 4 1022.2 1022.0 0.0
 
Date/Time
EST
Temp
°C
App
Temp
°C
Dew
Point
Rel
Hum
%
Delta-T
°C
Wind Press
QNH
hPa
Press
MSL
hPa
Rain
since 9 am
mm
Dir
 
Spd
km/h
Gust
km/h
Spd
kts
Gust
kts
26/11:30pm 15.0 14.4 11.8 81 1.8 ENE 6 7 3 4 1022.5 1022.3 0.0
26/11:00pm 15.2 14.6 11.6 79 2.0 ESE 6 6 3 3 1022.8 1022.6 0.0
26/10:30pm 15.7 15.3 11.1 74 2.5 W 4 9 2 5 1023.3 1023.2 0.0
26/10:00pm 15.9 14.9 10.2 69 3.0 SW 6 7 3 4 1022.5 1022.3 0.0
26/09:30pm 16.3 16.3 9.9 66 3.4 CALM 0 0 0 0 1022.6 1022.4 0.0
26/09:00pm 16.7 16.8 10.3 66 3.4 CALM 0 0 0 0 1023.0 1022.8 0.0
26/08:30pm 16.7 16.1 9.1 61 4.0 E 2 7 1 4 1022.8 1022.6 0.0
26/08:00pm 16.6 13.9 8.8 60 4.1 SSE 13 15 7 8 1021.9 1021.7 0.0
26/07:30pm 17.2 14.7 8.1 55 4.7 SSE 11 15 6 8 1022.2 1022.0 0.0
26/07:00pm 18.2 15.6 7.9 51 5.3 SE 11 15 6 8 1021.6 1021.4 0.0
26/06:30pm 19.1 14.9 8.4 50 5.6 S 20 26 11 14 1021.1 1020.9 0.0
26/06:00pm 19.0 17.7 9.8 55 4.9 S 7 9 4 5 1020.7 1020.5 0.0
26/05:30pm 20.4 18.9 9.0 48 6.1 SSW 7 11 4 6 1020.4 1020.3 0.0
26/05:00pm 20.9 19.0 8.9 46 6.4 SSW 9 13 5 7 1020.4 1020.3 0.0
26/04:30pm 21.9 18.7 8.4 42 7.2 SSW 15 20 8 11 1020.0 1019.8 0.0
26/04:00pm 21.8 18.0 7.6 40 7.5 SSW 17 24 9 13 1019.6 1019.4 0.0
26/03:30pm 22.9 20.2 7.4 37 8.2 SW 11 19 6 10 1019.4 1019.2 0.0
26/03:00pm 23.1 20.8 7.6 37 8.2 SW 9 15 5 8 1019.5 1019.3 0.0
26/02:30pm 22.2 19.5 7.2 38 7.9 SW 11 19 6 10 1019.5 1019.3 0.0
26/02:00pm 22.0 19.8 7.8 40 7.5 SSW 9 17 5 9 1019.9 1019.7 0.0
26/01:30pm 21.4 19.5 7.6 41 7.2 S 7 13 4 7 1020.4 1020.3 0.0
26/01:00pm 21.7 19.7 7.2 39 7.6 NNE 7 13 4 7 1020.9 1020.7 0.0
26/12:30pm 20.4 17.9 6.4 40 7.1 E 9 15 5 8 1021.9 1021.7 0.0
26/12:00pm 19.8 17.8 7.2 44 6.5 NNE 7 13 4 7 1022.4 1022.2 0.0
26/11:30am 18.7 16.5 7.8 49 5.7 ESE 9 13 5 7 1022.9 1022.7 0.0
26/11:00am 17.4 15.6 9.6 60 4.1 ENE 9 15 5 8 1023.4 1023.3 0.0
26/10:30am 16.2 14.6 8.7 61 3.9 E 7 13 4 7 1023.8 1023.7 0.0
26/10:00am 15.5 13.5 8.7 64 3.5 ESE 9 13 5 7 1024.2 1024.0 0.0
26/09:30am 14.9 13.5 9.5 70 2.8 ENE 7 11 4 6 1024.2 1024.0 0.0
26/09:00am 14.1 12.9 9.7 75 2.3 E 6 11 3 6 1023.6 1023.5 0.0
26/08:30am 13.8 12.5 9.3 74 2.3 SSW 6 7 3 4 1024.3 1024.1 0.0
26/08:00am 13.1 11.4 9.9 81 1.7 WSW 9 13 5 7 1024.4 1024.2 0.0
26/07:30am 12.5 11.1 9.7 83 1.5 WSW 7 7 4 4 1023.7 1023.6 0.0
26/07:00am 11.2 11.2 9.8 91 0.7 CALM 0 0 0 0 1022.9 1022.7 0.0
26/06:30am 9.6 8.6 7.4 86 1.1 S 2 6 1 3 1022.5 1022.3 0.0
26/06:00am 10.6 9.5 8.4 86 1.1 SW 4 6 2 3 1022.5 1022.3 0.0
26/05:30am 11.2 10.6 9.1 87 1.1 SW 2 9 1 5 1023.0 1022.8 0.0
26/05:00am 11.4 11.1 8.6 83 1.4 CALM 0 0 0 0 1022.3 1022.1 0.0
26/04:30am 11.8 11.5 8.6 81 1.6 CALM 0 6 0 3 1022.1 1021.9 0.0
26/04:00am 11.9 10.3 8.9 82 1.5 S 7 9 4 5 1021.6 1021.4 0.0
26/03:30am 11.6 10.1 8.6 82 1.5 S 6 7 3 4 1021.6 1021.4 0.0
26/03:00am 11.8 10.2 8.8 82 1.5 SSE 7 9 4 5 1021.5 1021.3 0.0
26/02:30am 11.6 9.9 8.5 81 1.6 S 7 9 4 5 1021.7 1021.5 0.0
26/02:00am 11.6 9.8 8.1 79 1.7 S 7 9 4 5 1021.7 1021.5 0.0
26/01:30am 11.2 9.3 7.7 79 1.7 S 7 11 4 6 1022.1 1021.9 0.0
26/01:00am 11.3 9.0 7.6 78 1.8 SSW 9 13 5 7 1022.3 1022.1 0.0
26/12:30am 11.6 9.3 7.5 76 2.0 S 9 11 5 6 1022.3 1022.1 0.0
26/12:00am 12.2 10.0 7.7 74 2.2 S 9 11 5 6 1022.4 1022.2 0.0
 
Date/Time
EST
Temp
°C
App
Temp
°C
Dew
Point
Rel
Hum
%
Delta-T
°C
Wind Press
QNH
hPa
Press
MSL
hPa
Rain
since 9 am
mm
Dir
 
Spd
km/h
Gust
km/h
Spd
kts
Gust
kts
25/11:30pm 12.4 10.6 8.1 75 2.2 S 7 9 4 5 1022.3 1022.1 0.0
25/11:09pm 12.9 10.8 8.2 73 2.4 SSW 9 11 5 6 1022.1 1021.9 0.0
25/11:00pm 13.0 10.9 8.3 73 2.4 SSW 9 11 5 6 1022.0 1021.8 0.0
25/10:41pm 12.9 10.4 8.4 74 2.3 SSW 11 11 6 6 1021.8 1021.6 0.0
25/10:30pm 13.3 10.9 8.6 73 2.4 SSW 11 15 6 8 1021.8 1021.6 0.0
25/10:29pm 13.3 10.5 8.6 73 2.4 SSW 13 15 7 8 1021.8 1021.6 0.0
25/10:00pm 13.7 11.4 9.0 73 2.4 SW 11 13 6 7 1021.8 1021.6 0.0
25/09:48pm 14.1 12.1 8.7 70 2.8 SSW 9 11 5 6 1021.8 1021.6 0.0
25/09:30pm 16.1 13.0 8.8 62 3.8 S 15 22 8 12 1021.7 1021.5 0.0
25/09:00pm 15.4 13.6 9.5 68 3.1 S 9 11 5 6 1021.5 1021.3 0.0
25/08:30pm 16.7 14.7 10.1 65 3.5 S 11 15 6 8 1021.1 1020.9 0.0
25/08:00pm 16.9 14.9 11.4 70 3.0 SSW 13 13 7 7 1020.6 1020.4 0.0
25/07:30pm 17.0 14.9 11.3 69 3.1 SW 13 17 7 9 1020.1 1019.9 0.0
25/07:00pm 19.2 18.4 11.0 59 4.5 S 6 7 3 4 1019.6 1019.4 0.0
25/06:30pm 18.7 17.9 11.0 61 4.2 ESE 6 7 3 4 1018.9 1018.7 0.0
25/06:00pm 20.4 19.4 11.1 55 5.2 S 7 9 4 5 1018.6 1018.4 0.0
25/05:30pm 22.6 20.8 10.7 47 6.7 S 11 17 6 9 1018.6 1018.4 0.0
25/05:00pm 23.6 21.3 10.3 43 7.4 S 13 15 7 8 1018.2 1018.0 0.0
25/04:30pm 24.1 21.1 10.7 43 7.5 SSW 17 20 9 11 1018.0 1017.8 0.0
25/04:00pm 25.0 22.2 11.2 42 7.9 WSW 17 24 9 13 1018.2 1018.0 0.0
25/03:30pm 24.9 23.4 10.4 40 8.2 W 9 15 5 8 1018.3 1018.1 0.0
25/03:00pm 25.0 23.2 10.8 41 8.0 W 11 15 6 8 1018.3 1018.1 0.0
25/02:30pm 24.8 23.5 11.4 43 7.7 NW 9 17 5 9 1018.5 1018.3 0.0
25/02:00pm 24.0 23.1 11.3 45 7.2 W 7 15 4 8 1018.7 1018.5 0.0
25/01:30pm 23.7 22.7 11.1 45 7.1 NNW 7 11 4 6 1018.9 1018.7 0.0
25/01:00pm 23.0 22.3 11.4 48 6.6 WNW 6 11 3 6 1019.3 1019.1 0.0
25/12:30pm 22.3 20.6 9.8 45 6.9 W 9 19 5 10 1019.8 1019.6 0.0

Other Formats:

Comma delimited format used in spreadsheet applications
http://www.bom.gov.au/fwo/IDQ60801/IDQ60801.94515.axf

JavaScript Object Notation format (JSON) in row-major order
http://www.bom.gov.au/fwo/IDQ60801/IDQ60801.94515.json